createdAt,value
2022-11-05T00:00:00.090Z,95705.84
2022-11-05T00:02:45.341Z,95695.34
2022-11-05T00:05:31.306Z,95714.97
2022-11-05T00:08:19.155Z,95694.78
2022-11-05T00:10:45.683Z,95698.22
2022-11-05T00:13:44.576Z,95704.28
2022-11-05T00:16:39.913Z,95716.72
2022-11-05T00:19:06.519Z,95706.13
2022-11-05T00:21:52.859Z,95714.78
2022-11-05T00:24:37.545Z,95713.59
2022-11-05T00:27:04.107Z,95717.72
2022-11-05T00:29:30.526Z,95718.09
2022-11-05T00:31:56.918Z,95725.47
2022-11-05T00:34:23.384Z,95718.19
2022-11-05T00:36:49.837Z,95720.06
2022-11-05T00:39:16.220Z,95718.19
2022-11-05T00:41:42.612Z,95723.41
2022-11-05T00:44:27.328Z,95730.66
2022-11-05T00:47:13.669Z,95728.88
2022-11-05T00:49:40.019Z,95723.00
2022-11-05T00:52:24.730Z,95727.72
2022-11-05T00:54:51.090Z,95751.44
2022-11-05T00:57:17.449Z,95731.13
2022-11-05T00:59:43.818Z,95742.81
2022-11-05T01:02:10.370Z,95745.44
2022-11-05T01:04:36.795Z,95754.47
2022-11-05T01:07:03.213Z,95757.91
2022-11-05T01:09:29.585Z,95760.63
2022-11-05T01:11:56.000Z,95750.66
2022-11-05T01:14:22.614Z,95767.31
2022-11-05T01:16:49.092Z,95763.19
2022-11-05T01:19:15.541Z,95761.03
2022-11-05T01:21:41.905Z,95755.75
2022-11-05T01:24:10.577Z,95772.22
2022-11-05T01:26:36.984Z,95771.81
2022-11-05T01:29:03.460Z,95770.34
2022-11-05T01:31:29.888Z,95773.53
2022-11-05T01:33:56.255Z,95769.13
2022-11-05T01:36:22.658Z,95771.38
2022-11-05T01:38:49.064Z,95769.97
2022-11-05T01:41:15.455Z,95767.88
2022-11-05T01:43:59.945Z,95770.09
2022-11-05T01:46:33.272Z,95770.69
2022-11-05T01:49:16.347Z,95774.88
2022-11-05T01:51:45.064Z,95767.78
2022-11-05T01:54:16.533Z,95769.25
2022-11-05T01:56:50.685Z,95762.03
2022-11-05T01:59:48.693Z,95768.22
2022-11-05T02:02:15.679Z,95759.44
2022-11-05T02:04:47.783Z,95750.41
2022-11-05T02:07:14.729Z,95763.66
2022-11-05T02:09:51.019Z,95759.63
2022-11-05T02:12:18.748Z,95756.06
2022-11-05T02:14:45.162Z,95758.88
2022-11-05T02:17:24.605Z,95756.19
2022-11-05T02:20:22.088Z,95748.44
2022-11-05T02:23:13.718Z,95757.81
2022-11-05T02:26:11.370Z,95758.84
2022-11-05T02:29:13.340Z,95745.72
2022-11-05T02:31:47.687Z,95750.31
2022-11-05T02:34:28.904Z,95743.16
2022-11-05T02:37:09.369Z,95744.19
2022-11-05T02:40:05.400Z,95743.66
2022-11-05T02:42:44.084Z,95738.91
2022-11-05T02:45:31.445Z,95740.81
2022-11-05T02:48:06.885Z,95736.84
2022-11-05T02:50:39.326Z,95750.94
2022-11-05T02:53:19.870Z,95757.88
2022-11-05T02:56:01.049Z,95763.63
2022-11-05T02:58:28.878Z,95756.84
2022-11-05T03:00:57.373Z,95767.03
2022-11-05T03:03:34.519Z,95768.97
2022-11-05T03:06:00.950Z,95785.53
2022-11-05T03:08:50.034Z,95780.44
2022-11-05T03:11:22.819Z,95786.19
2022-11-05T03:14:15.269Z,95782.88
2022-11-05T03:16:45.686Z,95787.81
2022-11-05T03:19:15.028Z,95791.44
2022-11-05T03:21:47.475Z,95793.03
2022-11-05T03:24:25.787Z,95797.69
2022-11-05T03:26:57.383Z,95794.88
2022-11-05T03:29:32.977Z,95805.72
2022-11-05T03:32:02.308Z,95799.84
2022-11-05T03:34:33.913Z,95816.31
2022-11-05T03:37:02.546Z,95807.41
2022-11-05T03:39:33.651Z,95817.28
2022-11-05T03:42:02.939Z,95809.09
2022-11-05T03:44:34.903Z,95817.78
2022-11-05T03:47:06.679Z,95822.19
2022-11-05T03:49:40.383Z,95822.38
2022-11-05T03:52:06.694Z,95830.00
2022-11-05T03:54:34.576Z,95841.03
2022-11-05T03:57:09.205Z,95836.66
2022-11-05T03:59:42.777Z,95833.63
2022-11-05T04:02:11.986Z,95839.13
2022-11-05T04:04:38.876Z,95843.50
2022-11-05T04:07:24.654Z,95836.72
2022-11-05T04:10:09.487Z,95847.16
2022-11-05T04:12:54.378Z,95850.88
2022-11-05T04:15:20.749Z,95857.06
2022-11-05T04:17:47.110Z,95865.53
2022-11-05T04:20:31.824Z,95859.00
2022-11-05T04:23:24.338Z,95858.78
2022-11-05T04:25:50.931Z,95867.75
2022-11-05T04:28:17.329Z,95870.41
2022-11-05T04:30:46.601Z,95874.69
2022-11-05T04:33:15.773Z,95883.72
2022-11-05T04:35:47.722Z,95880.00
2022-11-05T04:38:17.422Z,95873.22
2022-11-05T04:40:45.469Z,95883.59
2022-11-05T04:43:15.324Z,95879.16
2022-11-05T04:45:42.637Z,95880.16
2022-11-05T04:48:09.220Z,95891.91
2022-11-05T04:50:35.648Z,95893.88
2022-11-05T04:53:02.487Z,95903.97
2022-11-05T04:55:29.258Z,95902.28
2022-11-05T04:57:55.914Z,95905.88
2022-11-05T05:00:23.841Z,95910.09
2022-11-05T05:02:50.359Z,95910.53
2022-11-05T05:05:17.003Z,95914.91
2022-11-05T05:07:43.413Z,95926.25
2022-11-05T05:10:11.189Z,95922.84
2022-11-05T05:12:37.659Z,95928.91
2022-11-05T05:15:04.561Z,95933.44
2022-11-05T05:17:30.979Z,95927.50
2022-11-05T05:20:16.118Z,95925.19
2022-11-05T05:22:42.477Z,95939.38
2022-11-05T05:25:08.922Z,95945.81
2022-11-05T05:27:35.289Z,95946.16
2022-11-05T05:30:02.020Z,95942.28
2022-11-05T05:32:28.476Z,95952.03
2022-11-05T05:34:54.875Z,95955.72
2022-11-05T05:37:21.312Z,95956.25
2022-11-05T05:39:48.441Z,95967.97
2022-11-05T05:42:15.567Z,95968.03
2022-11-05T05:44:42.454Z,95971.84
2022-11-05T05:47:08.818Z,95974.56
2022-11-05T05:49:35.249Z,95979.25
2022-11-05T05:52:01.806Z,95978.03
2022-11-05T05:54:32.345Z,95976.13
2022-11-05T05:57:00.674Z,95980.25
2022-11-05T05:59:27.073Z,95978.44
2022-11-05T06:01:53.622Z,95989.97
2022-11-05T06:04:20.584Z,95989.97
2022-11-05T06:06:47.107Z,95991.06
2022-11-05T06:09:14.100Z,95991.06
2022-11-05T06:11:41.224Z,95994.41
2022-11-05T06:14:11.273Z,96005.16
2022-11-05T06:16:38.990Z,96007.47
2022-11-05T06:19:06.665Z,96004.44
2022-11-05T06:21:33.084Z,96013.56
2022-11-05T06:24:02.083Z,96014.13
2022-11-05T06:26:29.232Z,96011.31
2022-11-05T06:28:55.674Z,96009.25
2022-11-05T06:31:22.267Z,96008.88
2022-11-05T06:33:48.796Z,96014.16
2022-11-05T06:36:17.502Z,96021.38
2022-11-05T06:38:43.997Z,96031.78
2022-11-05T06:41:10.889Z,96028.25
2022-11-05T06:43:38.287Z,96032.03
2022-11-05T06:46:05.233Z,96025.84
2022-11-05T06:48:31.748Z,96028.38
2022-11-05T06:50:58.478Z,96035.66
2022-11-05T06:53:25.060Z,96043.84
2022-11-05T06:55:51.420Z,96045.47
2022-11-05T06:58:17.938Z,96048.56
2022-11-05T07:00:44.486Z,96057.00
2022-11-05T07:03:12.377Z,96057.94
2022-11-05T07:05:50.998Z,96068.94
2022-11-05T07:08:17.411Z,96067.66
2022-11-05T07:10:43.971Z,96070.22
2022-11-05T07:13:10.710Z,96057.19
2022-11-05T07:15:37.620Z,96074.66
2022-11-05T07:18:05.150Z,96075.03
2022-11-05T07:20:34.228Z,96078.69
2022-11-05T07:23:06.167Z,96075.22
2022-11-05T07:25:34.027Z,96076.56
2022-11-05T07:28:01.078Z,96073.53
2022-11-05T07:30:27.669Z,96066.97
2022-11-05T07:32:54.127Z,96080.91
2022-11-05T07:35:20.913Z,96086.44
2022-11-05T07:37:49.374Z,96079.84
2022-11-05T07:40:18.425Z,96085.41
2022-11-05T07:42:46.474Z,96088.34
2022-11-05T07:45:12.886Z,96088.50
2022-11-05T07:47:44.935Z,96093.50
2022-11-05T07:50:11.477Z,96091.22
2022-11-05T07:52:37.834Z,96100.28
2022-11-05T07:55:04.612Z,96090.13
2022-11-05T07:57:31.027Z,96101.94
2022-11-05T07:59:57.522Z,96097.72
2022-11-05T08:02:24.119Z,96083.56
2022-11-05T08:04:50.618Z,96097.91
2022-11-05T08:07:16.975Z,96086.09
2022-11-05T08:09:43.339Z,96088.56
2022-11-05T08:12:09.709Z,96098.88
2022-11-05T08:14:36.073Z,96085.03
2022-11-05T08:17:02.431Z,96106.34
2022-11-05T08:19:28.798Z,96105.00
2022-11-05T08:21:55.307Z,96103.19
2022-11-05T08:24:21.721Z,96097.38
2022-11-05T08:26:48.058Z,96107.66
2022-11-05T08:29:14.459Z,96094.91
2022-11-05T08:31:40.895Z,96113.06
2022-11-05T08:34:07.761Z,96103.25
2022-11-05T08:36:35.815Z,96107.78
2022-11-05T08:39:02.226Z,96105.84
2022-11-05T08:41:28.787Z,96109.88
2022-11-05T08:43:56.218Z,96097.97
2022-11-05T08:46:22.774Z,96102.91
2022-11-05T08:48:49.964Z,96109.19
2022-11-05T08:51:16.439Z,96114.50
2022-11-05T08:53:42.786Z,96104.88
2022-11-05T08:56:09.290Z,96120.47
2022-11-05T08:58:36.025Z,96122.25
2022-11-05T09:01:05.413Z,96122.16
2022-11-05T09:03:32.056Z,96123.16
2022-11-05T09:05:58.494Z,96127.97
2022-11-05T09:08:24.880Z,96127.28
2022-11-05T09:10:51.292Z,96117.78
2022-11-05T09:13:19.815Z,96125.13
2022-11-05T09:15:50.935Z,96124.63
2022-11-05T09:18:18.995Z,96109.81
2022-11-05T09:20:45.682Z,96122.19
2022-11-05T09:23:14.764Z,96119.63
2022-11-05T09:25:41.469Z,96131.41
2022-11-05T09:28:21.364Z,96129.97
2022-11-05T09:30:49.988Z,96131.22
2022-11-05T09:33:19.013Z,96135.53
2022-11-05T09:35:46.189Z,96138.19
2022-11-05T09:38:13.438Z,96139.09
2022-11-05T09:40:48.843Z,96149.59
2022-11-05T09:43:20.340Z,96146.75
2022-11-05T09:45:52.639Z,96150.88
2022-11-05T09:48:24.427Z,96150.09
2022-11-05T09:50:53.678Z,96152.03
2022-11-05T09:53:23.261Z,96162.88
2022-11-05T09:55:55.882Z,96139.84
2022-11-05T09:58:39.145Z,96151.09
2022-11-05T10:01:13.996Z,96151.06
2022-11-05T10:03:48.085Z,96150.88
2022-11-05T10:06:24.568Z,96158.34
2022-11-05T10:09:00.759Z,96164.66
2022-11-05T10:11:36.680Z,96158.94
2022-11-05T10:14:28.918Z,96164.25
2022-11-05T10:17:04.167Z,96168.47
2022-11-05T10:19:41.134Z,96180.94
2022-11-05T10:22:13.574Z,96171.88
2022-11-05T10:24:44.661Z,96180.94
2022-11-05T10:27:16.760Z,96175.81
2022-11-05T10:29:43.731Z,96181.34
2022-11-05T10:32:24.995Z,96179.75
2022-11-05T10:34:53.987Z,96175.25
2022-11-05T10:37:22.668Z,96170.72
2022-11-05T10:39:49.324Z,96170.03
2022-11-05T10:42:34.002Z,96169.22
2022-11-05T10:45:05.376Z,96181.50
2022-11-05T10:47:45.797Z,96178.25
2022-11-05T10:50:17.912Z,96173.75
2022-11-05T10:53:11.842Z,96184.22
2022-11-05T10:55:43.605Z,96178.13
2022-11-05T10:58:16.113Z,96174.91
2022-11-05T11:00:44.938Z,96175.34
2022-11-05T11:03:29.931Z,96174.91
2022-11-05T11:06:01.755Z,96182.16
2022-11-05T11:08:29.592Z,96179.03
2022-11-05T11:10:58.909Z,96193.25
2022-11-05T11:13:28.478Z,96176.25
2022-11-05T11:16:12.918Z,96172.56
2022-11-05T11:18:41.863Z,96175.88
2022-11-05T11:21:19.923Z,96179.84
2022-11-05T11:24:02.871Z,96178.66
2022-11-05T11:26:32.445Z,96159.31
2022-11-05T11:29:05.432Z,96170.38
2022-11-05T11:31:33.338Z,96157.81
2022-11-05T11:34:05.931Z,96163.66
2022-11-05T11:36:43.098Z,96165.50
2022-11-05T11:39:17.375Z,96157.75
2022-11-05T11:41:45.089Z,96175.22
2022-11-05T11:44:18.055Z,96158.84
2022-11-05T11:46:49.602Z,96170.84
2022-11-05T11:49:37.875Z,96159.31
2022-11-05T11:52:17.081Z,96165.88
2022-11-05T11:54:43.466Z,96175.28
2022-11-05T11:57:30.063Z,96167.44
2022-11-05T12:00:14.376Z,96171.78
2022-11-05T12:03:09.381Z,96168.81
2022-11-05T12:05:48.178Z,96161.50
2022-11-05T12:08:30.699Z,96164.56
2022-11-05T12:11:32.612Z,96165.53
2022-11-05T12:14:09.670Z,96169.88
2022-11-05T12:16:50.978Z,96166.56
2022-11-05T12:19:40.664Z,96170.78
2022-11-05T12:22:26.584Z,96165.06
2022-11-05T12:25:21.519Z,96153.63
2022-11-05T12:28:01.101Z,96168.16
2022-11-05T12:30:35.777Z,96157.00
2022-11-05T12:33:05.179Z,96150.72
2022-11-05T12:36:21.154Z,96154.13
2022-11-05T12:39:19.641Z,96152.84
2022-11-05T12:41:58.136Z,96146.06
2022-11-05T12:44:45.410Z,96152.06
2022-11-05T12:47:41.091Z,96142.09
2022-11-05T12:50:26.097Z,96154.66
2022-11-05T12:53:14.518Z,96145.28
2022-11-05T12:55:48.618Z,96161.66
2022-11-05T12:58:56.691Z,96169.97
2022-11-05T13:01:35.456Z,96145.28
2022-11-05T13:04:13.354Z,96167.06
2022-11-05T13:06:45.143Z,96152.78
2022-11-05T13:09:19.950Z,96161.59
2022-11-05T13:12:18.386Z,96153.44
2022-11-05T13:14:55.037Z,96165.47
2022-11-05T13:17:24.894Z,96158.13
2022-11-05T13:19:57.407Z,96151.84
2022-11-05T13:22:26.685Z,96153.44
2022-11-05T13:24:57.818Z,96172.72
2022-11-05T13:27:58.193Z,96162.44
2022-11-05T13:30:34.760Z,96164.84
2022-11-05T13:33:12.789Z,96151.28
2022-11-05T13:35:47.767Z,96166.22
2022-11-05T13:38:40.300Z,96166.84
2022-11-05T13:41:32.679Z,96159.78
2022-11-05T13:44:08.569Z,96162.50
2022-11-05T13:47:22.500Z,96172.25
2022-11-05T13:49:57.905Z,96167.31
2022-11-05T13:52:36.309Z,96167.31
2022-11-05T13:55:17.822Z,96176.22
2022-11-05T13:58:09.771Z,96174.44
2022-11-05T14:00:43.998Z,96169.03
2022-11-05T14:03:20.368Z,96171.66
2022-11-05T14:05:57.298Z,96176.34
2022-11-05T14:08:27.575Z,96166.50
2022-11-05T14:11:02.060Z,96162.84
2022-11-05T14:13:44.692Z,96170.00
2022-11-05T14:16:26.038Z,96176.19
2022-11-05T14:19:13.887Z,96177.94
2022-11-05T14:21:53.352Z,96187.34
2022-11-05T14:24:22.685Z,96190.63
2022-11-05T14:27:01.349Z,96191.53
2022-11-05T14:29:42.493Z,96182.53
2022-11-05T14:32:18.634Z,96202.28
2022-11-05T14:35:01.526Z,96186.69
2022-11-05T14:37:33.095Z,96184.69
2022-11-05T14:40:19.476Z,96202.47
2022-11-05T14:42:51.927Z,96198.66
2022-11-05T14:45:30.493Z,96191.97
2022-11-05T14:48:07.009Z,96198.97
2022-11-05T14:50:41.757Z,96211.88
2022-11-05T14:53:37.810Z,96205.06
2022-11-05T14:56:08.699Z,96209.72
2022-11-05T14:58:41.883Z,96214.66
2022-11-05T15:01:09.878Z,96209.25
2022-11-05T15:03:59.740Z,96205.94
2022-11-05T15:06:32.703Z,96218.13
2022-11-05T15:09:13.449Z,96200.44
2022-11-05T15:11:48.488Z,96210.75
2022-11-05T15:14:35.064Z,96206.63
2022-11-05T15:17:15.481Z,96219.94
2022-11-05T15:19:42.898Z,96207.63
2022-11-05T15:22:28.028Z,96210.88
2022-11-05T15:24:55.214Z,96205.41
2022-11-05T15:27:35.054Z,96228.81
2022-11-05T15:30:21.937Z,96225.72
2022-11-05T15:32:48.448Z,96234.72
2022-11-05T15:35:38.957Z,96236.78
2022-11-05T15:38:26.260Z,96228.78
2022-11-05T15:41:04.438Z,96231.53
2022-11-05T15:43:30.936Z,96239.22
2022-11-05T15:46:05.241Z,96244.81
2022-11-05T15:48:32.486Z,96251.41
2022-11-05T15:50:59.261Z,96243.63
2022-11-05T15:54:01.828Z,96242.94
2022-11-05T15:56:32.561Z,96239.00
2022-11-05T15:59:16.177Z,96249.72
2022-11-05T16:01:48.355Z,96270.16
2022-11-05T16:04:21.610Z,96257.91
2022-11-05T16:06:49.832Z,96259.03
2022-11-05T16:09:31.980Z,96260.91
2022-11-05T16:12:20.031Z,96277.84
2022-11-05T16:14:58.745Z,96285.41
2022-11-05T16:17:27.969Z,96290.81
2022-11-05T16:19:54.969Z,96272.81
2022-11-05T16:22:22.176Z,96284.63
2022-11-05T16:24:49.222Z,96284.13
2022-11-05T16:27:19.835Z,96289.50
2022-11-05T16:29:50.325Z,96279.25
2022-11-05T16:32:29.920Z,96275.56
2022-11-05T16:35:00.743Z,96279.66
2022-11-05T16:37:37.583Z,96278.78
2022-11-05T16:40:12.884Z,96280.94
2022-11-05T16:42:40.635Z,96289.50
2022-11-05T16:45:10.369Z,96292.63
2022-11-05T16:47:36.782Z,96285.75
2022-11-05T16:50:14.607Z,96280.25
2022-11-05T16:52:41.009Z,96304.59
2022-11-05T16:55:08.921Z,96300.69
2022-11-05T16:57:35.966Z,96297.22
2022-11-05T17:00:02.736Z,96296.44
2022-11-05T17:02:29.216Z,96317.19
2022-11-05T17:04:55.751Z,96322.00
2022-11-05T17:07:22.194Z,96324.50
2022-11-05T17:09:48.600Z,96338.78
2022-11-05T17:12:15.344Z,96341.94
2022-11-05T17:14:41.874Z,96332.63
2022-11-05T17:17:08.338Z,96338.56
2022-11-05T17:19:34.721Z,96343.88
2022-11-05T17:22:01.162Z,96343.50
2022-11-05T17:24:27.549Z,96342.81
2022-11-05T17:26:54.077Z,96349.75
2022-11-05T17:29:20.434Z,96346.59
2022-11-05T17:31:46.862Z,96363.88
2022-11-05T17:34:13.251Z,96353.63
2022-11-05T17:36:39.736Z,96351.41
2022-11-05T17:39:06.120Z,96358.88
2022-11-05T17:41:32.498Z,96365.16
2022-11-05T17:43:58.978Z,96367.81
2022-11-05T17:46:25.509Z,96370.47
2022-11-05T17:48:51.867Z,96381.31
2022-11-05T17:51:19.308Z,96376.22
2022-11-05T17:53:47.324Z,96370.47
2022-11-05T17:56:24.584Z,96380.59
2022-11-05T17:58:55.608Z,96404.56
2022-11-05T18:01:28.048Z,96397.31
2022-11-05T18:03:54.564Z,96393.50
2022-11-05T18:06:20.988Z,96383.66
2022-11-05T18:08:47.565Z,96402.75
2022-11-05T18:11:13.979Z,96399.31
2022-11-05T18:13:40.414Z,96398.03
2022-11-05T18:16:07.294Z,96419.00
2022-11-05T18:18:33.731Z,96416.06
2022-11-05T18:21:00.252Z,96422.22
2022-11-05T18:23:26.858Z,96427.84
2022-11-05T18:25:53.356Z,96421.38
2022-11-05T18:28:19.736Z,96426.75
2022-11-05T18:30:46.095Z,96426.97
2022-11-05T18:33:12.763Z,96405.47
2022-11-05T18:35:43.642Z,96409.09
2022-11-05T18:38:10.168Z,96413.34
2022-11-05T18:40:36.556Z,96408.53
2022-11-05T18:43:02.984Z,96423.06
2022-11-05T18:45:30.098Z,96409.53
2022-11-05T18:47:56.580Z,96416.47
2022-11-05T18:50:22.982Z,96411.75
2022-11-05T18:52:49.352Z,96395.31
2022-11-05T18:55:15.791Z,96417.06
2022-11-05T18:57:42.230Z,96396.13
2022-11-05T19:00:09.316Z,96396.19
2022-11-05T19:02:35.990Z,96400.22
2022-11-05T19:07:48.967Z,96397.97
2022-11-05T19:10:15.584Z,96413.56
2022-11-05T19:12:42.180Z,96403.28
2022-11-05T19:15:09.147Z,96403.34
2022-11-05T19:17:35.991Z,96425.13
2022-11-05T19:20:03.225Z,96437.88
2022-11-05T19:22:29.620Z,96440.72
2022-11-05T19:24:56.027Z,96434.09
2022-11-05T19:27:23.177Z,96449.56
2022-11-05T19:29:49.545Z,96444.19
2022-11-05T19:32:16.197Z,96433.88
2022-11-05T19:34:42.546Z,96432.88
2022-11-05T19:37:09.110Z,96438.00
2022-11-05T19:39:36.058Z,96473.63
2022-11-05T19:42:04.080Z,96452.16
2022-11-05T19:44:31.109Z,96474.88
2022-11-05T19:46:57.632Z,96441.88
2022-11-05T19:49:24.496Z,96468.19
2022-11-05T19:51:51.025Z,96463.97
2022-11-05T19:54:17.632Z,96480.06
2022-11-05T19:56:44.137Z,96469.69
2022-11-05T19:59:11.476Z,96485.13
2022-11-05T20:01:38.119Z,96478.50
2022-11-05T20:04:05.694Z,96499.72
2022-11-05T20:06:38.629Z,96492.66
2022-11-05T20:09:25.522Z,96505.81
2022-11-05T20:11:54.254Z,96504.50
2022-11-05T20:14:20.998Z,96489.34
2022-11-05T20:16:47.793Z,96489.94
2022-11-05T20:19:17.413Z,96493.50
2022-11-05T20:21:44.461Z,96484.25
2022-11-05T20:24:13.195Z,96482.09
2022-11-05T20:26:39.738Z,96481.84
2022-11-05T20:29:06.253Z,96509.97
2022-11-05T20:31:33.082Z,96475.19
2022-11-05T20:33:59.491Z,96492.91
2022-11-05T20:36:26.569Z,96500.69
2022-11-05T20:38:56.394Z,96481.03
2022-11-05T20:41:23.517Z,96488.22
2022-11-05T20:43:50.807Z,96494.91
2022-11-05T20:46:19.056Z,96477.66
2022-11-05T20:48:45.853Z,96480.25
2022-11-05T20:51:20.502Z,96479.47
2022-11-05T20:53:47.689Z,96491.69
2022-11-05T20:56:22.668Z,96492.22
2022-11-05T20:58:49.956Z,96517.13
2022-11-05T21:01:17.421Z,96497.25
2022-11-05T21:03:45.298Z,96507.03
2022-11-05T21:06:12.747Z,96522.97
2022-11-05T21:08:39.648Z,96507.09
2022-11-05T21:11:07.187Z,96487.47
2022-11-05T21:13:34.031Z,96520.78
2022-11-05T21:16:01.756Z,96519.28
2022-11-05T21:18:30.918Z,96503.88
2022-11-05T21:20:59.731Z,96508.88
2022-11-05T21:23:28.118Z,96514.69
2022-11-05T21:25:54.873Z,96526.91
2022-11-05T21:28:21.569Z,96529.81
2022-11-05T21:30:49.035Z,96521.66
2022-11-05T21:33:17.706Z,96529.81
2022-11-05T21:35:46.894Z,96524.78
2022-11-05T21:38:16.021Z,96528.75
2022-11-05T21:40:43.602Z,96540.75
2022-11-05T21:43:10.191Z,96541.78
2022-11-05T21:45:41.232Z,96539.91
2022-11-05T21:48:08.579Z,96534.59
2022-11-05T21:50:54.730Z,96533.81
2022-11-05T21:53:39.518Z,96538.91
2022-11-05T21:56:26.331Z,96537.81
2022-11-05T21:59:11.290Z,96541.03
2022-11-05T22:01:37.799Z,96528.84
2022-11-05T22:04:04.412Z,96533.13
2022-11-05T22:06:33.422Z,96534.69
2022-11-05T22:09:00.188Z,96526.78
2022-11-05T22:11:26.541Z,96521.50
2022-11-05T22:13:53.629Z,96528.13
2022-11-05T22:16:20.010Z,96509.88
2022-11-05T22:18:46.405Z,96518.66
2022-11-05T22:21:19.075Z,96516.84
2022-11-05T22:23:45.561Z,96511.28
2022-11-05T22:26:12.148Z,96510.53
2022-11-05T22:28:38.551Z,96508.09
2022-11-05T22:31:11.852Z,96503.03
2022-11-05T22:33:38.249Z,96498.06
2022-11-05T22:36:04.834Z,96517.41
2022-11-05T22:38:31.233Z,96505.38
2022-11-05T22:40:57.639Z,96521.34
2022-11-05T22:43:24.153Z,96512.13
2022-11-05T22:45:50.503Z,96517.47
2022-11-05T22:48:16.900Z,96503.88
2022-11-05T22:50:43.261Z,96509.72
2022-11-05T22:53:09.673Z,96512.06
2022-11-05T22:55:39.583Z,96504.66
2022-11-05T22:58:06.015Z,96507.31
2022-11-05T23:00:37.118Z,96505.75
2022-11-05T23:03:03.870Z,96523.22
2022-11-05T23:05:30.380Z,96525.59
2022-11-05T23:08:15.773Z,96530.72
2022-11-05T23:11:00.836Z,96522.78
2022-11-05T23:13:27.263Z,96526.50
2022-11-05T23:16:12.270Z,96529.69
2022-11-05T23:18:57.070Z,96540.03
2022-11-05T23:21:41.973Z,96546.16
2022-11-05T23:24:08.490Z,96541.97
2022-11-05T23:26:52.641Z,96556.28
2022-11-05T23:29:21.781Z,96561.03
2022-11-05T23:32:08.215Z,96561.63
2022-11-05T23:34:34.635Z,96580.75
2022-11-05T23:37:19.705Z,96570.53
2022-11-05T23:39:46.085Z,96568.38
2022-11-05T23:42:31.386Z,96576.00
2022-11-05T23:45:16.610Z,96571.28
2022-11-05T23:48:02.130Z,96583.00
2022-11-05T23:50:33.113Z,96574.88
2022-11-05T23:53:02.107Z,96574.91
2022-11-05T23:55:30.192Z,96563.59
2022-11-05T23:57:56.642Z,96571.75
